Tiempo atmosférico en la estación meteorológica de Zarza La Mayor, Cáceres (336 m.)



Fecha
DESCASC
Temp. máxima en grados centígrados (hora)
DESCASC
Temp. mínima en grados centígrados (hora)
DESCASC
Temp. media en grados centígrados
DESCASC
Racha de viento máxima en m/sg (hora)
DESCASC
Velocidad máxima media en intervalos de 10 minutos(hora)
DESCASC
Precipitaciones diarias en mm
DESCASC
Precipitaciones de 00:00 a 06:00 en mm
DESCASC
Precipitaciones de 06:00 a 12:00 en mm
DESCASC
Precipitaciones de 12:00 a 18:00 en mm
DESCASC
Precipitaciones de 18:00 a 24:00 en mm
DESCASC
10-07-2020 38.4 (18:30) 22.3 (07:00) 30.4 7.5 (18:00) 3.89 (18:00) 0 0 0 0 0
09-07-2020 37.1 (18:40) 16 (07:30) 26.5 7.5 (01:50) 5.56 (01:20) 0 0 0 0 0
08-07-2020 36.7 (17:00) 20.1 (07:50) 28.4 9.72 (18:20) 6.39 (20:00) 0 0 0 0 0
07-07-2020 41.2 (17:30) 20.8 (06:40) 31 9.17 (16:10) 5 (20:00) 0 0 0 0 0
06-07-2020 42 (17:30) 22.7 (00:00) 32.4 9.17 (21:20) 5.83 (22:20) 0 0 0 0 0
05-07-2020 40.5 (17:10) 21.2 (00:00) 30.9 11.67 (16:20) 5 (09:20) 0 0 0 0 0
04-07-2020 37.4 (19:10) 18.6 (00:00) 28 10 (15:40) 5 (10:20) 0 0 0 0 0
03-07-2020 34.3 (19:50) 13.9 (07:10) 24.1 5.28 (14:20) 2.78 (14:20) 0 0 0 0 0
02-07-2020 32 (16:50) 16.7 (00:00) 24.4 11.67 (16:00) 7.78 (17:40) 0 0 0 0 0
01-07-2020 36.3 (16:20) 16.8 (00:00) 26.5 10 (17:50) 6.39 (19:10) 0 0 0 0 0
30-06-2020 38.4 (17:20) 19.2 (00:00) 28.8 12.5 (18:10) 7.5 (20:20) 0 0 0 0 0
29-06-2020 38 (17:20) 19.1 (00:00) 28.6 7.78 (22:30) 5 (00:30) 0 0 0 0 0
28-06-2020 35.6 (17:40) 18.1 (00:00) 26.8 8.61 (23:10) 5.83 (23:20) 0 0 0 0 0
27-06-2020 32.9 (17:50) 15.2 (00:00) 24.1 8.61 (17:00) 5.83 (21:20) 0 0 0 0 0
26-06-2020 31.2 (17:00) 12 (00:00) 21.6 10.28 (22:00) 6.94 (21:10) 0 0 0 0 0
25-06-2020 33.5 (16:30) 16.5 (00:00) 25 11.39 (16:50) 6.67 (22:50) 0 0 0 0 0
24-06-2020 36.2 (17:10) 18.3 (00:00) 27.3 11.11 (17:10) 6.67 (19:30) 0 0 0 0 0
23-06-2020 -- (--) -- (--) -- -- (--) -- (--) -- 0 -- 0 0
22-06-2020 39.2 (19:30) 20 (00:00) 29.6 11.67 (12:20) 5.83 (11:50) 0 0 0 0 0
21-06-2020 34.9 (17:30) 14.4 (00:00) 24.7 10.83 (20:20) 5 (17:40) 0 0 0 0 0
20-06-2020 34.2 (17:50) 14.1 (00:00) 24.2 9.44 (20:50) 6.11 (21:40) 0 0 0 0 0
19-06-2020 32.1 (17:50) 12.7 (00:00) 22.4 10.28 (16:50) 5.56 (22:30) 0 0 0 0 0
18-06-2020 30.8 (18:20) 12 (00:00) 21.4 8.89 (15:50) 5.28 (18:20) 0 0 0 0 0
17-06-2020 28.3 (17:50) 10.9 (00:00) 19.6 8.89 (00:30) 6.11 (00:20) 0 0 0 0 0
16-06-2020 28.3 (16:30) 13.7 (00:00) 21 12.78 (19:40) 7.5 (20:50) 0.2 0 0.2 0 0
15-06-2020 29 (17:20) 11.2 (00:00) 20.1 9.17 (17:20) 5.28 (20:30) 0 0 0 0 0
14-06-2020 27.6 (17:10) 10.4 (00:00) 19 10.83 (21:40) 7.78 (21:40) 0 0 0 0 0
13-06-2020 24.1 (16:10) 9.8 (00:00) 17 9.72 (18:10) 6.39 (18:20) 0 0 0 0 0
12-06-2020 23.4 (15:20) 9.5 (00:00) 16.4 15 (16:40) 8.61 (13:10) 0 0 0 0 0

Gráficas

Temp. máximas Temp. mínimas Temp. medias Precipitaciones Rachas de viento máximas Velocidades máximas media en intervalos de 10 minutos

Datos horarios

Fecha y hora oficial Temperatura (ºC) Velocidad del viento (km/h) Dirección del viento Racha (km/h) Dirección de racha Precipitación (mm) Presión (hPa) Tendencia (hPa) Humedad (%)
2020-07-11 23:00:00 26.7 21 Norte 33 Norte 0 -- -- 40
2020-07-11 22:00:00 25.6 18 Noroeste 40 Noroeste 0 -- -- 45
2020-07-11 21:00:00 27.4 25 Noroeste 44 Noroeste 0 -- -- 41
2020-07-11 20:00:00 36.2 10 Nordeste 35 Nordeste 0 -- -- 22
2020-07-11 19:00:00 38.4 18 Este 39 Nordeste 0 -- -- 19
2020-07-11 18:00:00 38.5 16 Nordeste 30 Nordeste 0 -- -- 19
2020-07-11 17:00:00 39.2 16 Nordeste 24 Este 0 -- -- 19
2020-07-11 16:00:00 38.3 13 Norte 26 Norte 0 -- -- 19
2020-07-11 15:00:00 38.3 10 Sur 28 Sudeste 0 -- -- 19
2020-07-11 14:00:00 37.1 10 Nordeste 28 Nordeste 0 -- -- 25
2020-07-11 13:00:00 35 11 Nordeste 26 Nordeste 0 -- -- 28
2020-07-11 12:00:00 33.5 13 Nordeste 30 Nordeste 0 -- -- 30
2020-07-11 11:00:00 31.6 18 Nordeste 34 Nordeste 0 -- -- 34
2020-07-11 10:00:00 28.8 17 Nordeste 31 Nordeste 0 -- -- 38
2020-07-11 09:00:00 27.2 16 Nordeste 32 Nordeste 0 -- -- 39
2020-07-11 08:00:00 25.1 12 Nordeste 22 Norte 0 -- -- 41
2020-07-11 07:00:00 24.3 9 Nordeste 17 Este 0 -- -- 43
2020-07-11 06:00:00 24.4 10 Este 13 Este 0 -- -- 45
2020-07-11 05:00:00 24.9 0 Calma 9 Norte 0 -- -- 40
2020-07-11 04:00:00 26.1 6 Norte 11 Norte 0 -- -- 37
2020-07-11 03:00:00 25.5 4 Norte 6 Norte 0 -- -- 43
2020-07-11 02:00:00 26.6 3 Noroeste 9 Sudoeste 0 -- -- 47
2020-07-11 01:00:00 28 6 Sudoeste 20 Sudoeste 0 -- -- 46
2020-07-11 00:00:00 29.4 12 Sudoeste 20 Sudoeste 0 -- -- 43
2020-07-10 23:00:00 31.3 12 Sudoeste 17 Sudoeste 0 -- -- 33
2020-07-10 22:00:00 33.4 4 Nordeste 6 Noroeste 0 -- -- 22
2020-07-10 21:00:00 35.4 4 Noroeste 14 Oeste 0 -- -- 22
2020-07-10 20:00:00 37 7 Sudeste 17 Norte 0 -- -- 21
2020-07-10 19:00:00 36.8 8 Norte 19 Sudoeste 0 -- -- 21
2020-07-10 18:00:00 37.9 14 Sudoeste 27 Sudoeste 0 -- -- 20
2020-07-10 17:00:00 37 6 Sudeste 21 Norte 0 -- -- 21
2020-07-10 16:00:00 36.7 10 Norte 19 Noroeste 0 -- -- 22
2020-07-10 15:00:00 35.2 5 Este 19 Oeste 0 -- -- 23
2020-07-10 14:00:00 34.6 6 Norte 16 Noroeste 0 -- -- 26
2020-07-10 13:00:00 33.1 4 Noroeste 14 Noroeste 0 -- -- 27
2020-07-10 12:00:00 31.2 8 Norte 18 Nordeste 0 -- -- 30
2020-07-10 11:00:00 29 13 Nordeste 20 Este 0 -- -- 34
2020-07-10 10:00:00 27.4 10 Nordeste 16 Este 0 -- -- 36
2020-07-10 09:00:00 25.3 9 Nordeste 12 Nordeste 0 -- -- 40
2020-07-10 08:00:00 22.6 0 Calma 12 Nordeste 0 -- -- 46
2020-07-10 07:00:00 22.3 6 Este 12 Este 0 -- -- 46
2020-07-10 06:00:00 23.9 8 Nordeste 17 Nordeste 0 -- -- 41
2020-07-10 05:00:00 24.2 9 Este 21 Nordeste 0 -- -- 43
2020-07-10 04:00:00 24.7 5 Este 13 Nordeste 0 -- -- 41
2020-07-10 03:00:00 25.1 0 Calma 6 Nordeste 0 -- -- 47
2020-07-10 02:00:00 26.7 3 Sudoeste 9 Noroeste 0 -- -- 43
2020-07-10 01:00:00 27.3 6 Norte 16 Oeste 0 -- -- 43
2020-07-10 00:00:00 27.3 9 Oeste 18 Oeste 0 -- -- 36
2020-07-09 23:00:00 29.1 4 Sudoeste 16 Sudoeste 0 -- -- 20
2020-07-09 22:00:00 31.1 10 Sur 12 Sur 0 -- -- 19
2020-07-09 21:00:00 34.7 6 Sur 11 Sudoeste 0 -- -- 16
2020-07-09 20:00:00 36.3 8 Oeste 14 Sudoeste 0 -- -- 15
2020-07-09 19:00:00 36.9 4 Oeste 16 Oeste 0 -- -- 14
2020-07-09 18:00:00 36.5 6 Sur 22 Este 0 -- -- 15
2020-07-09 17:00:00 35.7 5 Sudeste 17 Sudeste 0 -- -- 14
2020-07-09 16:00:00 34.9 11 Sur 20 Sur 0 -- -- 17
2020-07-09 15:00:00 33.6 5 Norte 19 Este 0 -- -- 19
2020-07-09 14:00:00 32.3 5 Sudeste 17 Este 0 -- -- 21
2020-07-09 13:00:00 29.9 8 Este 17 Este 0 -- -- 31
2020-07-09 12:00:00 28 9 Este 17 Este 0 -- -- 37
2020-07-09 11:00:00 25.4 6 Norte 12 Norte 0 -- -- 47
2020-07-09 10:00:00 22.6 3 Noroeste 10 Noroeste 0 -- -- 54
2020-07-09 09:00:00 20.1 4 Noroeste 8 Noroeste 0 -- -- 66
2020-07-09 08:00:00 17.2 4 Oeste 9 Oeste 0 -- -- 76
2020-07-09 07:00:00 16.3 3 Sur 13 Sur 0 -- -- 75
2020-07-09 06:00:00 17.3 4 Sur 8 Sudeste 0 -- -- 73
2020-07-09 05:00:00 18.5 4 Sudoeste 9 Sudoeste 0 -- -- 70
2020-07-09 04:00:00 19.8 4 Oeste 23 Sudoeste 0 -- -- 65
2020-07-09 03:00:00 20.9 15 Sudoeste 26 Sudoeste 0 -- -- 62
2020-07-09 02:00:00 22.5 20 Sudoeste 27 Sudoeste 0 -- -- 57
2020-07-09 01:00:00 23.8 18 Sudoeste 26 Sudoeste 0 -- -- 51
2020-07-09 00:00:00 25.3 19 Sudoeste 28 Sudoeste 0 -- -- 44
2020-07-08 23:00:00 27.1 15 Sudoeste 26 Sudoeste 0 -- -- 35
2020-07-08 22:00:00 29.3 16 Sudoeste 30 Sudoeste 0 -- -- 28
2020-07-08 21:00:00 32.5 19 Sudoeste 32 Sudoeste 0 -- -- 17
2020-07-08 20:00:00 34.2 23 Sudoeste 33 Sudoeste 0 -- -- 14
2020-07-08 19:00:00 35.5 17 Sudoeste 35 Sudoeste 0 -- -- 17
2020-07-08 18:00:00 36.2 15 Sudoeste 26 Oeste 0 -- -- 17
2020-07-08 17:00:00 36.7 14 Sudoeste 29 Sudoeste 0 -- -- 15
2020-07-08 16:00:00 35.7 16 Sudoeste 33 Sudoeste 0 -- -- 19
2020-07-08 15:00:00 34 12 Sur 28 Sudoeste 0 -- -- 21
2020-07-08 14:00:00 32.6 10 Sudoeste 25 Sur 0 -- -- 23
2020-07-08 13:00:00 31.7 13 Oeste 23 Sudoeste 0 -- -- 22
2020-07-08 12:00:00 29.2 12 Oeste 19 Oeste 0 -- -- 28
2020-07-08 11:00:00 26.5 8 Oeste 20 Sudoeste 0 -- -- 39
2020-07-08 10:00:00 24.1 10 Sudoeste 15 Oeste 0 -- -- 47
2020-07-08 09:00:00 21.9 4 Noroeste 12 Oeste 0 -- -- 52
2020-07-08 08:00:00 20.3 6 Sudoeste 8 Sudoeste 0 -- -- 56
2020-07-08 07:00:00 20.9 6 Sudoeste 10 Sudoeste 0 -- -- 50
2020-07-08 06:00:00 23.1 3 Oeste 13 Sudoeste 0 -- -- 44
2020-07-08 05:00:00 24.6 4 Sur 12 Sudoeste 0 -- -- 46
2020-07-08 04:00:00 25.9 8 Sudoeste 20 Sudoeste 0 -- -- 45
2020-07-08 03:00:00 27.1 15 Sudoeste 21 Sudoeste 0 -- -- 42
2020-07-08 02:00:00 28.4 13 Sudoeste 18 Sudoeste 0 -- -- 38
2020-07-08 01:00:00 29.6 12 Sudoeste 20 Sudoeste 0 -- -- 29
2020-07-08 00:00:00 31.3 15 Sudoeste 22 Sudoeste 0 -- -- 23
2020-07-07 23:00:00 32 11 Sudoeste 17 Sudoeste 0 -- -- 19
2020-07-07 22:00:00 33.5 12 Sudoeste 15 Sudoeste 0 -- -- 16
2020-07-07 21:00:00 36.6 11 Sudoeste 24 Sudoeste 0 -- -- 13
2020-07-07 20:00:00 39 18 Sudoeste 26 Sudoeste 0 -- -- 11
2020-07-07 19:00:00 40.6 17 Sudoeste 28 Sudoeste 0 -- -- 11
2020-07-07 18:00:00 41 13 Sudoeste 29 Sudoeste 0 -- -- 12
2020-07-07 17:00:00 40.8 15 Sudoeste 33 Sudoeste 0 -- -- 11
2020-07-07 16:00:00 39.9 15 Sudoeste 29 Sudoeste 0 -- -- 13
2020-07-07 15:00:00 39.2 14 Sudoeste 27 Sudoeste 0 -- -- 12
2020-07-07 14:00:00 37.5 10 Sudoeste 25 Sudoeste 0 -- -- 14
2020-07-07 13:00:00 36.2 8 Sudoeste 22 Sudoeste 0 -- -- 16
2020-07-07 12:00:00 34.6 4 Sudeste 22 Sudeste 0 -- -- 20
2020-07-07 11:00:00 31.7 3 Noroeste 11 Noroeste 0 -- -- 29
2020-07-07 10:00:00 28.5 3 Noroeste 7 Oeste 0 -- -- 36
2020-07-07 09:00:00 25.6 3 Noroeste 4 Noroeste 0 -- -- 43
2020-07-07 08:00:00 23.1 3 Oeste 8 Sudoeste 0 -- -- 48
2020-07-07 07:00:00 21 4 Oeste 7 Noroeste 0 -- -- 54
2020-07-07 06:00:00 22.6 4 Noroeste 12 Sur 0 -- -- 48
2020-07-07 05:00:00 25 2 Sudoeste 10 Sur 0 -- -- 43
2020-07-07 04:00:00 26 0 Calma 6 Sudeste 0 -- -- 41
2020-07-07 03:00:00 26.7 0 Calma 4 Sudoeste 0 -- -- 40
2020-07-07 02:00:00 27.5 2 Noroeste 9 Noroeste 0 -- -- 40
2020-07-07 01:00:00 28.1 6 Oeste 24 Sudoeste 0 -- -- 38
2020-07-07 00:00:00 30.1 17 Sudoeste 25 Oeste 0 -- -- 35
2020-07-06 23:00:00 32.4 17 Oeste 31 Oeste 0 -- -- 32
2020-07-06 22:00:00 34.9 17 Oeste 33 Sudoeste 0 -- -- 26
2020-07-06 21:00:00 38.9 11 Oeste 23 Oeste 0 -- -- 16
2020-07-06 20:00:00 40.6 6 Oeste 26 Oeste 0 -- -- 14
2020-07-06 19:00:00 40.5 13 Oeste 23 Oeste 0 -- -- 14
2020-07-06 18:00:00 41.3 10 Noroeste 26 Oeste 0 -- -- 13
2020-07-06 17:00:00 40.9 4 Este 21 Noroeste 0 -- -- 14
2020-07-06 16:00:00 40.6 8 Sudoeste 20 Sudoeste 0 -- -- 14
2020-07-06 15:00:00 39.8 6 Noroeste 19 Noroeste 0 -- -- 15
2020-07-06 14:00:00 39.3 9 Sudoeste 17 Sur 0 -- -- 17
2020-07-06 13:00:00 37 5 Norte 15 Norte 0 -- -- 19
2020-07-06 12:00:00 35.3 7 Nordeste 18 Norte 0 -- -- 21
2020-07-06 11:00:00 32.8 10 Norte 17 Norte 0 -- -- 27
2020-07-06 10:00:00 31.1 4 Este 10 Nordeste 0 -- -- 35
2020-07-06 09:00:00 26.9 2 Nordeste 4 Norte 0 -- -- 41
2020-07-06 08:00:00 23.4 0 Calma 5 Sudoeste 0 -- -- 44
2020-07-06 07:00:00 22.8 4 Sudoeste 6 Sudoeste 0 -- -- 46
2020-07-06 06:00:00 24.4 4 Sur 10 Sudoeste 0 -- -- 41
2020-07-06 05:00:00 25.1 5 Sur 10 Sudoeste 0 -- -- 40
2020-07-06 04:00:00 26.7 3 Sudoeste 10 Noroeste 0 -- -- 35
2020-07-06 03:00:00 27.4 7 Norte 14 Noroeste 0 -- -- 34
2020-07-06 02:00:00 27.8 7 Norte 12 Noroeste 0 -- -- 32
2020-07-06 01:00:00 28.3 6 Noroeste 10 Noroeste 0 -- -- 26
2020-07-06 00:00:00 29.3 7 Noroeste 14 Oeste 0 -- -- 22
2020-07-05 23:00:00 31.7 5 Norte 10 Noroeste 0 -- -- 18
2020-07-05 22:00:00 34.2 4 Noroeste 15 Noroeste 0 -- -- 17
2020-07-05 21:00:00 37.7 8 Noroeste 21 Noroeste 0 -- -- 14
2020-07-05 20:00:00 39 9 Noroeste 20 Noroeste 0 -- -- 13
2020-07-05 19:00:00 38.9 9 Nordeste 23 Norte 0 -- -- 13
2020-07-05 18:00:00 39.4 5 Norte 16 Sudoeste 0 -- -- 13
2020-07-05 17:00:00 40.2 10 Sudoeste 42 Sudoeste 0 -- -- 13
2020-07-05 16:00:00 39 8 Oeste 18 Norte 0 -- -- 14
2020-07-05 15:00:00 37.6 7 Norte 18 Nordeste 0 -- -- 15
2020-07-05 14:00:00 37.1 9 Norte 20 Nordeste 0 -- -- 18
2020-07-05 13:00:00 35 10 Nordeste 22 Nordeste 0 -- -- 22
2020-07-05 12:00:00 32.7 13 Nordeste 23 Nordeste 0 -- -- 25
2020-07-05 11:00:00 30.5 15 Nordeste 27 Nordeste 0 -- -- 26
2020-07-05 10:00:00 28.6 14 Nordeste 30 Nordeste 0 -- -- 26
2020-07-05 09:00:00 27.1 13 Nordeste 24 Nordeste 0 -- -- 24
2020-07-05 08:00:00 22.3 2 Norte 6 Norte 0 -- -- 31
2020-07-05 07:00:00 22.3 2 Noroeste 9 Nordeste 0 -- -- 29
2020-07-05 06:00:00 24.4 6 Este 8 Este 0 -- -- 27
2020-07-05 05:00:00 24.5 2 Sudeste 9 Norte 0 -- -- 24
2020-07-05 04:00:00 24.4 4 Norte 9 Norte 0 -- -- 26
2020-07-05 03:00:00 25.6 8 Norte 13 Norte 0 -- -- 24
2020-07-05 02:00:00 26.6 9 Norte 17 Nordeste 0 -- -- 23
2020-07-05 01:00:00 26.8 10 Norte 17 Norte 0 -- -- 24
2020-07-05 00:00:00 27.4 8 Norte 13 Norte 0 -- -- 25
2020-07-04 23:00:00 30.2 2 Noroeste 10 Nordeste 0 -- -- 18
2020-07-04 22:00:00 32.1 8 Nordeste 12 Nordeste 0 -- -- 16
2020-07-04 21:00:00 34.6 8 Norte 15 Nordeste 0 -- -- 16
2020-07-04 20:00:00 35.7 9 Nordeste 19 Norte 0 -- -- 14
2020-07-04 19:00:00 37 6 Norte 23 Noroeste 0 -- -- 13
2020-07-04 18:00:00 37 6 Sur 22 Norte 0 -- -- 12
2020-07-04 17:00:00 37 10 Oeste 21 Noroeste 0 -- -- 12
2020-07-04 16:00:00 36.2 12 Noroeste 36 Nordeste 0 -- -- 14
2020-07-04 15:00:00 35.1 10 Este 24 Este 0 -- -- 14
2020-07-04 14:00:00 34 9 Nordeste 25 Este 0 -- -- 18
2020-07-04 13:00:00 32.4 12 Nordeste 26 Nordeste 0 -- -- 22
2020-07-04 12:00:00 31 14 Nordeste 29 Nordeste 0 -- -- 23
2020-07-04 11:00:00 29.5 14 Nordeste 31 Nordeste 0 -- -- 24
2020-07-04 10:00:00 27.5 12 Nordeste 23 Nordeste 0 -- -- 27
2020-07-04 09:00:00 22.7 2 Oeste 5 Este 0 -- -- 44
2020-07-04 08:00:00 20.5 0 Calma 5 Sudoeste 0 -- -- 49
2020-07-04 07:00:00 18.6 3 Sudoeste 5 Sudoeste 0 -- -- 50
2020-07-04 06:00:00 19.4 2 Sudoeste 4 Sudoeste 0 -- -- 46
2020-07-04 05:00:00 20.6 2 Oeste 7 Oeste 0 -- -- 42
2020-07-04 04:00:00 21.8 2 Oeste 9 Noroeste 0 -- -- 38
2020-07-04 03:00:00 22.2 4 Oeste 6 Oeste 0 -- -- 36
2020-07-04 02:00:00 23.6 4 Noroeste 18 Nordeste 0 -- -- 31
2020-07-04 01:00:00 24.5 8 Norte 19 Noroeste 0 -- -- 28
2020-07-04 00:00:00 25.7 10 Norte 18 Noroeste 0 -- -- 26
2020-07-03 23:00:00 26.8 4 Noroeste 12 Norte 0 -- -- 25
2020-07-03 22:00:00 30 2 Noroeste 12 Norte 0 -- -- 20
2020-07-03 21:00:00 32.6 7 Norte 12 Norte 0 -- -- 18
2020-07-03 20:00:00 34.1 6 Sur 14 Sur 0 -- -- 16
2020-07-03 19:00:00 33.7 6 Noroeste 14 Norte 0 -- -- 15
2020-07-03 18:00:00 33.7 6 Oeste 17 Noroeste 0 -- -- 16
2020-07-03 17:00:00 34.2 9 Sudoeste 18 Noroeste 0 -- -- 18
2020-07-03 16:00:00 32.6 7 Noroeste 18 Noroeste 0 -- -- 22
2020-07-03 15:00:00 31.4 8 Noroeste 19 Norte 0 -- -- 22
2020-07-03 14:00:00 29.7 7 Norte 17 Nordeste 0 -- -- 26
2020-07-03 13:00:00 28.8 9 Nordeste 19 Norte 0 -- -- 28
2020-07-03 12:00:00 26.9 8 Norte 15 Norte 0 -- -- 32
2020-07-03 11:00:00 24.4 5 Noroeste 15 Noroeste 0 -- -- 37
2020-07-03 10:00:00 21.6 4 Noroeste 9 Norte 0 -- -- 44
2020-07-03 09:00:00 17.9 0 Calma 6 Sur 0 -- -- 55
2020-07-03 08:00:00 15 5 Sudoeste 10 Sur 0 -- -- 65
2020-07-03 07:00:00 14 5 Sur 11 Sudoeste 0 -- -- 68
2020-07-03 06:00:00 14.2 3 Sur 5 Sur 0 -- -- 66
2020-07-03 05:00:00 15.2 2 Sudoeste 6 Noroeste 0 -- -- 63
2020-07-03 04:00:00 15.1 3 Sudoeste 7 Sudoeste 0 -- -- 63
2020-07-03 03:00:00 16.2 5 Sudoeste 9 Oeste 0 -- -- 60
2020-07-03 02:00:00 16.9 5 Sudoeste 10 Sudoeste 0 -- -- 57
2020-07-03 01:00:00 17.9 6 Sudoeste 12 Sudoeste 0 -- -- 54
2020-07-03 00:00:00 19 9 Sudoeste 22 Sudoeste 0 -- -- 51
2020-07-02 23:00:00 20.6 17 Sudoeste 30 Sudoeste 0 -- -- 46
2020-07-02 22:00:00 22.9 21 Sudoeste 36 Sudoeste 0 -- -- 40
2020-07-02 21:00:00 26.3 27 Sudoeste 36 Oeste 0 -- -- 31
2020-07-02 20:00:00 28.5 24 Sudoeste 37 Sudoeste 0 -- -- 26
2020-07-02 19:00:00 30.3 23 Sudoeste 39 Sudoeste 0 -- -- 25
2020-07-02 18:00:00 31.5 22 Sudoeste 42 Sudoeste 0 -- -- 23
2020-07-02 17:00:00 31.8 26 Sudoeste 36 Sudoeste 0 -- -- 25
2020-07-02 16:00:00 31.6 23 Sudoeste 42 Sudoeste 0 -- -- 26
2020-07-02 15:00:00 31.5 17 Sudoeste 33 Sudoeste 0 -- -- 30
2020-07-02 14:00:00 30.1 22 Oeste 39 Sudoeste 0 -- -- 30
2020-07-02 13:00:00 29.6 19 Sudoeste 32 Sudoeste 0 -- -- 34
2020-07-02 12:00:00 28.3 11 Oeste 22 Sudoeste 0 -- -- 38
2020-07-02 11:00:00 25.7 4 Norte 12 Oeste 0 -- -- 47
2020-07-02 10:00:00 23.5 3 Oeste 8 Sudoeste 0 -- -- 54
2020-07-02 09:00:00 20.6 4 Oeste 10 Sudoeste 0 -- -- 64
2020-07-02 08:00:00 18.1 5 Sudoeste 12 Sudoeste 0 -- -- 73
2020-07-02 07:00:00 16.8 7 Sudoeste 11 Sudoeste 0 -- -- 78
2020-07-02 06:00:00 17.5 4 Sur 9 Sur 0 -- -- 74
2020-07-02 05:00:00 18 5 Sudoeste 13 Sur 0 -- -- 71
2020-07-02 04:00:00 18.7 7 Sur 13 Sur 0 -- -- 67
2020-07-02 03:00:00 19.8 4 Sudoeste 14 Sudoeste 0 -- -- 63
2020-07-02 02:00:00 21 8 Sudoeste 19 Sudoeste 0 -- -- 60
2020-07-02 01:00:00 22 13 Sudoeste 20 Sudoeste 0 -- -- 56
2020-07-02 00:00:00 23.5 12 Sudoeste 19 Sudoeste 0 -- -- 49
2020-07-01 23:00:00 25.5 11 Sudoeste 25 Oeste 0 -- -- 40
2020-07-01 22:00:00 28.5 15 Sudoeste 30 Sudoeste 0 -- -- 30
2020-07-01 21:00:00 31.9 19 Oeste 35 Oeste 0 -- -- 24
2020-07-01 20:00:00 34 17 Oeste 35 Oeste 0 -- -- 22
2020-07-01 19:00:00 35.5 18 Oeste 35 Oeste 0 -- -- 22
2020-07-01 18:00:00 35.6 15 Sudoeste 36 Sudoeste 0 -- -- 24
2020-07-01 17:00:00 35.7 15 Sudoeste 32 Sudoeste 0 -- -- 24
2020-07-01 16:00:00 36 17 Sudoeste 31 Sudoeste 0 -- -- 21
2020-07-01 15:00:00 34.4 14 Sudoeste 26 Sur 0 -- -- 26
2020-07-01 14:00:00 33.7 11 Oeste 28 Oeste 0 -- -- 27
2020-07-01 13:00:00 30.9 6 Oeste 25 Sudoeste 0 -- -- 37
2020-07-01 12:00:00 28.9 5 Oeste 12 Sudoeste 0 -- -- 43
2020-07-01 11:00:00 26.3 5 Sudoeste 13 Oeste 0 -- -- 51
2020-07-01 10:00:00 23.3 8 Sudoeste 15 Sudoeste 0 -- -- 60
2020-07-01 09:00:00 20.1 6 Sudoeste 15 Sur 0 -- -- 71
2020-07-01 08:00:00 17.7 8 Sur 13 Sur 0 -- -- 81
2020-07-01 07:00:00 17 4 Sudoeste 18 Sudoeste 0 -- -- 83
2020-07-01 06:00:00 17.6 9 Sudoeste 18 Sudoeste 0 -- -- 81
2020-07-01 05:00:00 18.4 8 Sudoeste 14 Sudoeste 0 -- -- 78
2020-07-01 04:00:00 19.3 10 Sudoeste 20 Sudoeste 0 -- -- 74
2020-07-01 03:00:00 20.5 11 Sudoeste 17 Sudoeste 0 -- -- 67
2020-07-01 02:00:00 21.9 11 Sudoeste 24 Sudoeste 0 -- -- 61
2020-07-01 01:00:00 23.4 15 Sudoeste 23 Sudoeste 0 -- -- 54
2020-07-01 00:00:00 24.9 17 Sudoeste 26 Sudoeste 0 -- -- 48
2020-06-30 23:00:00 26.7 13 Sudoeste 31 Sudoeste 0 -- -- 39
2020-06-30 22:00:00 29.7 18 Sudoeste 34 Sudoeste 0 -- -- 35
2020-06-30 21:00:00 32.9 22 Sudoeste 40 Sudoeste 0 -- -- 25
2020-06-30 20:00:00 34.8 24 Sudoeste 40 Oeste 0 -- -- 23
2020-06-30 19:00:00 36.5 25 Sudoeste 45 Oeste 0 -- -- 22
2020-06-30 18:00:00 37.6 19 Sudoeste 41 Sur 0 -- -- 19
2020-06-30 17:00:00 38 20 Sudoeste 39 Sudoeste 0 -- -- 20
2020-06-30 16:00:00 37.9 15 Sudoeste 38 Sudoeste 0 -- -- 21
2020-06-30 15:00:00 37.7 15 Sudoeste 31 Sudoeste 0 -- -- 22
2020-06-30 14:00:00 36.6 10 Oeste 28 Sudoeste 0 -- -- 22
2020-06-30 13:00:00 34.9 7 Sudoeste 17 Sur 0 -- -- 24
2020-06-30 12:00:00 32.7 5 Sudoeste 11 Nordeste 0 -- -- 30
2020-06-30 11:00:00 28.7 3 Oeste 8 Oeste 0 -- -- 46
2020-06-30 10:00:00 26.2 2 Noroeste 8 Sudoeste 0 -- -- 54
2020-06-30 09:00:00 22.7 3 Sudoeste 9 Sudoeste 0 -- -- 63
2020-06-30 08:00:00 20.7 0 Calma 8 Sudoeste 0 -- -- 68
2020-06-30 07:00:00 19.5 5 Sudoeste 10 Sudoeste 0 -- -- 72
2020-06-30 06:00:00 20.3 6 Sudoeste 12 Sudoeste 0 -- -- 69
2020-06-30 05:00:00 21.2 0 Calma 8 Oeste 0 -- -- 65
2020-06-30 04:00:00 22.2 6 Sudoeste 10 Sudoeste 0 -- -- 62
2020-06-30 03:00:00 23.5 4 Sudoeste 15 Sudoeste 0 -- -- 56
2020-06-30 02:00:00 24.6 9 Sudoeste 18 Sudoeste 0 -- -- 54
2020-06-30 01:00:00 26.1 14 Sudoeste 26 Sudoeste 0 -- -- 49
2020-06-30 00:00:00 27.7 16 Sudoeste 24 Sudoeste 0 -- -- 44
2020-06-29 23:00:00 29.3 15 Sudoeste 28 Sudoeste 0 -- -- 36
2020-06-29 22:00:00 32.2 12 Oeste 16 Sudoeste 0 -- -- 26
2020-06-29 21:00:00 35.6 7 Oeste 17 Noroeste 0 -- -- 22
2020-06-29 20:00:00 36.7 6 Noroeste 19 Oeste 0 -- -- 22
2020-06-29 19:00:00 36.7 8 Sudoeste 23 Sudoeste 0 -- -- 22
2020-06-29 18:00:00 36.9 6 Sudoeste 24 Sudoeste 0 -- -- 23
2020-06-29 17:00:00 37.8 10 Oeste 24 Sudoeste 0 -- -- 22
2020-06-29 16:00:00 36.1 6 Oeste 24 Sudoeste 0 -- -- 24
2020-06-29 15:00:00 35.3 8 Noroeste 18 Oeste 0 -- -- 27
2020-06-29 14:00:00 34.5 6 Oeste 21 Sudoeste 0 -- -- 29
2020-06-29 13:00:00 32.5 4 Sudeste 15 Sur 0 -- -- 34
2020-06-29 12:00:00 31.1 6 Sudoeste 14 Sudoeste 0 -- -- 37
2020-06-29 11:00:00 28.5 3 Norte 8 Noroeste 0 -- -- 42
2020-06-29 10:00:00 26.8 3 Oeste 8 Noroeste 0 -- -- 45
2020-06-29 09:00:00 24.5 2 Este 6 Sudeste 0 -- -- 53
2020-06-29 08:00:00 21.1 0 Calma 5 Sur 0 -- -- 66
2020-06-29 07:00:00 19.1 3 Sur 8 Sur 0 -- -- 71
2020-06-29 06:00:00 20 0 Calma 5 Este 0 -- -- 67
2020-06-29 05:00:00 20.4 4 Sudeste 5 Sur 0 -- -- 66
2020-06-29 04:00:00 21.9 5 Norte 6 Norte 0 -- -- 60
2020-06-29 03:00:00 22.6 5 Norte 16 Noroeste 0 -- -- 58
2020-06-29 02:00:00 23.8 11 Noroeste 17 Noroeste 0 -- -- 54
2020-06-29 01:00:00 24.8 8 Noroeste 27 Norte 0 -- -- 52
2020-06-29 00:00:00 26.1 18 Noroeste 31 Noroeste 0 -- -- 48
2020-06-28 23:00:00 27.6 18 Noroeste 28 Noroeste 0 -- -- 44
2020-06-28 22:00:00 29.9 19 Noroeste 26 Noroeste 0 -- -- 38
2020-06-28 21:00:00 33.2 13 Noroeste 24 Oeste 0 -- -- 31
2020-06-28 20:00:00 34.8 10 Noroeste 26 Noroeste 0 -- -- 27
2020-06-28 19:00:00 35.1 11 Norte 22 Oeste 0 -- -- 26
2020-06-28 18:00:00 35.2 11 Noroeste 22 Noroeste 0 -- -- 26
2020-06-28 17:00:00 35 10 Noroeste 22 Noroeste 0 -- -- 26
2020-06-28 16:00:00 34.1 11 Norte 25 Norte 0 -- -- 28
2020-06-28 15:00:00 33.6 9 Sudoeste 23 Oeste 0 -- -- 30
2020-06-28 14:00:00 32.1 10 Norte 18 Noroeste 0 -- -- 32
2020-06-28 13:00:00 30.9 8 Oeste 16 Noroeste 0 -- -- 35
2020-06-28 12:00:00 28.8 5 Nordeste 13 Noroeste 0 -- -- 39
2020-06-28 11:00:00 27 4 Oeste 11 Noroeste 0 -- -- 46
2020-06-28 10:00:00 24.8 4 Norte 9 Norte 0 -- -- 51
2020-06-28 09:00:00 22.5 0 Calma 6 Sur 0 -- -- 59
2020-06-28 08:00:00 19.4 3 Sur 9 Sudoeste 0 -- -- 69
2020-06-28 07:00:00 18.2 4 Sur 8 Sudoeste 0 -- -- 72
2020-06-28 06:00:00 18.6 3 Sudoeste 6 Sudoeste 0 -- -- 70
2020-06-28 05:00:00 19.7 3 Sur 11 Noroeste 0 -- -- 64
2020-06-28 04:00:00 20.6 9 Noroeste 19 Noroeste 0 -- -- 62
2020-06-28 03:00:00 21.1 11 Noroeste 16 Noroeste 0 -- -- 63
2020-06-28 02:00:00 21.8 9 Noroeste 18 Noroeste 0 -- -- 60
2020-06-28 01:00:00 22.6 4 Oeste 18 Noroeste 0 -- -- 56
2020-06-28 00:00:00 23.5 7 Noroeste 19 Noroeste 0 -- -- 53
2020-06-27 23:00:00 24.6 13 Noroeste 21 Noroeste 0 -- -- 48
2020-06-27 22:00:00 26.5 18 Noroeste 30 Norte 0 -- -- 43
2020-06-27 21:00:00 29.6 17 Noroeste 27 Noroeste 0 -- -- 38
2020-06-27 20:00:00 30.4 12 Noroeste 25 Sudoeste 0 -- -- 35
2020-06-27 19:00:00 32.9 18 Sudoeste 30 Oeste 0 -- -- 31
2020-06-27 18:00:00 32.5 13 Oeste 30 Oeste 0 -- -- 31
2020-06-27 17:00:00 32.7 14 Sudoeste 31 Oeste 0 -- -- 30
2020-06-27 16:00:00 32 11 Sudoeste 28 Oeste 0 -- -- 31
2020-06-27 15:00:00 30.9 10 Noroeste 24 Sudoeste 0 -- -- 32
2020-06-27 14:00:00 30 10 Oeste 22 Oeste 0 -- -- 35
2020-06-27 13:00:00 28.8 8 Sudoeste 19 Oeste 0 -- -- 38
2020-06-27 12:00:00 26.3 6 Oeste 19 Oeste 0 -- -- 43
2020-06-27 11:00:00 24.5 6 Noroeste 11 Oeste 0 -- -- 49
2020-06-27 10:00:00 21.9 6 Oeste 13 Sudoeste 0 -- -- 59
2020-06-27 09:00:00 19 5 Sudoeste 12 Sudoeste 0 -- -- 70
2020-06-27 08:00:00 16.4 8 Sudoeste 13 Sudoeste 0 -- -- 81
2020-06-27 07:00:00 15.4 8 Sudoeste 12 Sudoeste 0 -- -- 84
2020-06-27 06:00:00 15.9 5 Sudoeste 14 Sudoeste 0 -- -- 79
2020-06-27 05:00:00 16.4 11 Sudoeste 27 Sudoeste 0 -- -- 78
2020-06-27 04:00:00 16.9 14 Sudoeste 23 Oeste 0 -- -- 74
2020-06-27 03:00:00 17.4 14 Sudoeste 22 Sudoeste 0 -- -- 68
2020-06-27 02:00:00 18.2 16 Sudoeste 23 Sudoeste 0 -- -- 61
2020-06-27 01:00:00 19.1 17 Sudoeste 25 Sudoeste 0 -- -- 58
2020-06-27 00:00:00 20.4 16 Sudoeste 26 Sudoeste 0 -- -- 55
2020-06-26 23:00:00 22.1 20 Sudoeste 34 Sudoeste 0 -- -- 52
2020-06-26 22:00:00 24.4 23 Sudoeste 37 Sudoeste 0 -- -- 45
2020-06-26 21:00:00 27.7 24 Sudoeste 32 Sudoeste 0 -- -- 36
2020-06-26 20:00:00 29.7 19 Sudoeste 33 Sudoeste 0 -- -- 29
2020-06-26 19:00:00 30.9 17 Sudoeste 31 Sudoeste 0 -- -- 27
2020-06-26 18:00:00 29.7 19 Sudoeste 29 Sudoeste 0 -- -- 27
2020-06-26 17:00:00 31.2 13 Oeste 28 Oeste 0 -- -- 23
2020-06-26 16:00:00 29.9 13 Oeste 29 Sudoeste 0 -- -- 26
2020-06-26 15:00:00 28.8 8 Oeste 23 Sudoeste 0 -- -- 28
2020-06-26 14:00:00 27.1 12 Sudoeste 23 Sudoeste 0 -- -- 33
2020-06-26 13:00:00 24.5 12 Sudoeste 20 Sur 0 -- -- 43
2020-06-26 12:00:00 22.6 7 Sudoeste 18 Oeste 0 -- -- 49
2020-06-26 11:00:00 20.5 3 Noroeste 14 Sudoeste 0 -- -- 56
2020-06-26 10:00:00 17.1 6 Sudoeste 13 Sur 0 -- -- 71
2020-06-26 09:00:00 15.2 8 Sudoeste 19 Sudoeste 0 -- -- 78
2020-06-26 08:00:00 13.4 4 Sudoeste 14 Sudoeste 0 -- -- 85
2020-06-26 07:00:00 12.1 10 Sudoeste 18 Sudoeste 0 -- -- 90
2020-06-26 06:00:00 12.5 9 Sudoeste 14 Sudoeste 0 -- -- 88
2020-06-26 05:00:00 13.3 6 Sudoeste 15 Sudoeste 0 -- -- 85
2020-06-26 04:00:00 14.5 9 Sudoeste 20 Sudoeste 0 -- -- 80
2020-06-26 03:00:00 15.7 13 Sudoeste 24 Sudoeste 0 -- -- 75
2020-06-26 02:00:00 17.7 19 Sudoeste 31 Sudoeste 0 -- -- 68
2020-06-26 01:00:00 19.7 20 Sudoeste 28 Sudoeste 0 -- -- 62
2020-06-26 00:00:00 21.7 18 Sudoeste 33 Sudoeste 0 -- -- 55
2020-06-25 23:00:00 23.7 22 Sudoeste 32 Sudoeste 0 -- -- 49
2020-06-25 22:00:00 26.1 20 Sudoeste 32 Sudoeste 0 -- -- 43
2020-06-25 21:00:00 29.6 22 Sudoeste 33 Sudoeste 0 -- -- 36
2020-06-25 20:00:00 31.3 19 Sudoeste 29 Sudoeste 0 -- -- 32
2020-06-25 19:00:00 32.1 16 Sur 31 Sudoeste 0 -- -- 31
2020-06-25 18:00:00 32.9 17 Sur 29 Sur 0 -- -- 27
2020-06-25 17:00:00 32.8 12 Sur 41 Sur 0 -- -- 27
2020-06-25 16:00:00 33 19 Sudeste 31 Sudeste 0 -- -- 26
2020-06-25 15:00:00 33.3 17 Sur 31 Sur 0 -- -- 24
2020-06-25 14:00:00 32 11 Sur 28 Sudoeste 0 -- -- 29
2020-06-25 13:00:00 29.9 9 Sudoeste 26 Sudoeste 0 -- -- 34
2020-06-25 12:00:00 28.1 7 Oeste 18 Sudoeste 0 -- -- 40
2020-06-25 11:00:00 25.8 6 Noroeste 13 Sudoeste 0 -- -- 50
2020-06-25 10:00:00 22.1 3 Noroeste 7 Oeste 0 -- -- 60
2020-06-25 09:00:00 19.3 4 Noroeste 10 Oeste 0 -- -- 71
2020-06-25 08:00:00 16.8 5 Oeste 12 Oeste 0 -- -- 81
2020-06-25 07:00:00 16.8 6 Oeste 13 Sudoeste 0 -- -- 80
2020-06-25 06:00:00 17.9 5 Sudoeste 16 Oeste 0 -- -- 76
2020-06-25 05:00:00 18.5 11 Sudoeste 18 Sudoeste 0 -- -- 75
2020-06-25 04:00:00 19.6 5 Oeste 13 Sudoeste 0 -- -- 70
2020-06-25 03:00:00 21 5 Sudoeste 12 Sudoeste 0 -- -- 62
2020-06-25 02:00:00 22.4 6 Sudoeste 10 Sudoeste 0 -- -- 55
2020-06-25 01:00:00 23.5 6 Sudoeste 11 Sudoeste 0 -- -- 52
2020-06-25 00:00:00 24.9 3 Noroeste 18 Sudoeste 0 -- -- 44
2020-06-24 23:00:00 26.5 12 Sudoeste 21 Sudoeste 0 -- -- 39
2020-06-24 22:00:00 28.8 12 Sudoeste 25 Sudoeste 0 -- -- 31
2020-06-24 21:00:00 32.1 17 Sudoeste 27 Sudoeste 0 -- -- 23
2020-06-24 20:00:00 34 18 Sudoeste 33 Sudoeste 0 -- -- 22
2020-06-24 19:00:00 35.1 24 Sudoeste 36 Sudoeste 0 -- -- 22
2020-06-24 18:00:00 36.1 14 Sudoeste 40 Sudoeste 0 -- -- 23
2020-06-24 17:00:00 36 20 Sudoeste 34 Sudoeste 0 -- -- 23
2020-06-24 16:00:00 35 17 Sur 26 Sur 0 -- -- 25
2020-06-24 15:00:00 33.4 12 Sur 23 Sudoeste 0 -- -- 29
2020-06-24 14:00:00 32.3 12 Sudoeste 26 Sudoeste 0 -- -- 30
2020-06-24 13:00:00 29.8 11 Sur 19 Sur 0 -- -- 39
2020-06-24 12:00:00 27.1 8 Oeste 17 Sudoeste 0 -- -- 48
2020-06-24 11:00:00 24.3 9 Oeste 19 Sudoeste 0 -- -- 57
2020-06-24 10:00:00 22 10 Sudoeste 15 Sudoeste 0 -- -- 65
2020-06-24 09:00:00 19.7 6 Sudoeste 15 Sudoeste 0 -- -- 72
2020-06-24 08:00:00 18.4 10 Sudoeste 16 Oeste 0 -- -- 76
2020-06-24 07:00:00 20.4 9 Oeste 22 Sudoeste 0 -- -- 67
2020-06-24 06:00:00 22.1 17 Sudoeste 26 Sudoeste 0 -- -- 60
2020-06-24 05:00:00 23.6 14 Sur 21 Sudoeste 0 -- -- 52
2020-06-24 04:00:00 24.1 4 Sudoeste 6 Oeste 0 -- -- 50
2020-06-24 03:00:00 25.3 3 Oeste 15 Sudoeste 0 -- -- 47
2020-06-24 02:00:00 26.2 9 Sudoeste 14 Sudoeste 0 -- -- 45
2020-06-24 01:00:00 27.1 6 Sudoeste 13 Sudoeste 0 -- -- 43
2020-06-24 00:00:00 28.5 7 Oeste 23 Sudoeste 0 -- -- 41
2020-06-23 23:00:00 30.3 17 Sudoeste 25 Sudoeste 0 -- -- 37
2020-06-23 22:00:00 32.9 18 Sur 26 Sur 0 -- -- 28
2020-06-23 21:00:00 36.4 9 Sur 21 Sur 0 -- -- 18
2020-06-23 20:00:00 -- -- -- -- -- -- -- -- --
2020-06-23 19:00:00 -- -- -- -- -- -- -- -- --
2020-06-23 18:00:00 -- -- -- -- -- -- -- -- --
2020-06-23 17:00:00 -- -- -- -- -- -- -- -- --
2020-06-23 16:00:00 -- -- -- -- -- -- -- -- --
2020-06-23 15:00:00 -- -- -- -- -- -- -- -- --
2020-06-23 14:00:00 -- -- -- -- -- -- -- -- --
2020-06-23 13:00:00 -- -- -- -- -- -- -- -- --
2020-06-23 12:00:00 -- -- -- -- -- -- -- -- --
2020-06-23 11:00:00 -- -- -- -- -- -- -- -- --
2020-06-23 10:00:00 -- -- -- -- -- -- -- -- --
2020-06-23 09:00:00 -- -- -- -- -- -- -- -- --
2020-06-23 08:00:00 23.1 3 Este 15 Nordeste 0 -- -- 43
2020-06-23 07:00:00 23.1 5 Nordeste 14 Nordeste 0 -- -- 39
2020-06-23 06:00:00 24.3 12 Nordeste 15 Nordeste 0 -- -- 34
2020-06-23 05:00:00 21.9 4 Noroeste 8 Norte 0 -- -- 42
2020-06-23 04:00:00 24.2 3 Norte 18 Este 0 -- -- 38
2020-06-23 03:00:00 25.3 4 Norte 9 Nordeste 0 -- -- 34
2020-06-23 02:00:00 26.2 2 Noroeste 4 Oeste 0 -- -- 34
2020-06-23 01:00:00 27.1 3 Noroeste 8 Norte 0 -- -- 32
2020-06-23 00:00:00 28.1 5 Noroeste 12 Nordeste 0 -- -- 30
2020-06-22 23:00:00 31.1 9 Nordeste 16 Nordeste 0 -- -- 24
2020-06-22 22:00:00 32.3 10 Nordeste 15 Nordeste 0 -- -- 23
2020-06-22 21:00:00 35.1 12 Norte 19 Norte 0 -- -- 21
2020-06-22 20:00:00 38.3 8 Sudoeste 22 Sur 0 -- -- 15
2020-06-22 19:00:00 38.4 6 Norte 23 Sudoeste 0 -- -- 15
2020-06-22 18:00:00 38.5 4 Nordeste 23 Este 0 -- -- 16
2020-06-22 17:00:00 37.8 7 Nordeste 21 Nordeste 0 -- -- 18
2020-06-22 16:00:00 37.1 10 Este 22 Este 0 -- -- 17
2020-06-22 15:00:00 36.8 10 Sudeste 28 Nordeste 0 -- -- 15
2020-06-22 14:00:00 35.2 14 Este 30 Nordeste 0 -- -- 23
2020-06-22 13:00:00 33.7 15 Nordeste 42 Este 0 -- -- 25
2020-06-22 12:00:00 31.3 16 Nordeste 39 Este 0 -- -- 30
2020-06-22 11:00:00 28.6 18 Nordeste 34 Nordeste 0 -- -- 34
2020-06-22 10:00:00 26.4 20 Nordeste 33 Nordeste 0 -- -- 38
2020-06-22 09:00:00 24.8 19 Nordeste 31 Nordeste 0 -- -- 42
2020-06-22 08:00:00 21.7 9 Norte 15 Nordeste 0 -- -- 56
2020-06-22 07:00:00 20 7 Norte 13 Nordeste 0 -- -- 62
2020-06-22 06:00:00 20.9 3 Norte 6 Norte 0 -- -- 60
2020-06-22 05:00:00 20.8 3 Oeste 11 Norte 0 -- -- 60
2020-06-22 04:00:00 21.5 9 Norte 17 Norte 0 -- -- 60
2020-06-22 03:00:00 21.9 5 Norte 12 Norte 0 -- -- 59
2020-06-22 02:00:00 23 3 Noroeste 11 Noroeste 0 -- -- 55
2020-06-22 01:00:00 24 8 Noroeste 14 Noroeste 0 -- -- 52
2020-06-22 00:00:00 25 7 Noroeste 12 Noroeste 0 -- -- 45
2020-06-21 23:00:00 26.2 7 Noroeste 12 Noroeste 0 -- -- 38
2020-06-21 22:00:00 28.7 11 Noroeste 21 Noroeste 0 -- -- 31
2020-06-21 21:00:00 31.7 15 Noroeste 39 Noroeste 0 -- -- 22
2020-06-21 20:00:00 33.3 16 Noroeste 27 Noroeste 0 -- -- 18
2020-06-21 19:00:00 33.7 16 Norte 26 Noroeste 0 -- -- 18
2020-06-21 18:00:00 34.3 13 Noroeste 34 Noroeste 0 -- -- 20
2020-06-21 17:00:00 34.4 12 Noroeste 28 Noroeste 0 -- -- 20
2020-06-21 16:00:00 33.8 7 Noroeste 24 Noroeste 0 -- -- 19
2020-06-21 15:00:00 33.3 6 Sudoeste 19 Noroeste 0 -- -- 19
2020-06-21 14:00:00 31.2 5 Oeste 15 Sudoeste 0 -- -- 21
2020-06-21 13:00:00 29.4 5 Norte 17 Sudoeste 0 -- -- 24
2020-06-21 12:00:00 27.5 6 Sudoeste 14 Sudoeste 0 -- -- 29
2020-06-21 11:00:00 24.8 6 Oeste 11 Oeste 0 -- -- 34
2020-06-21 10:00:00 21.8 3 Oeste 9 Oeste 0 -- -- 47
2020-06-21 09:00:00 18.9 0 Calma 5 Sur 0 -- -- 60
2020-06-21 08:00:00 16.1 3 Sur 10 Sudoeste 0 -- -- 72
2020-06-21 07:00:00 14.5 4 Sudoeste 13 Sudoeste 0 -- -- 77
2020-06-21 06:00:00 15.1 6 Sudoeste 11 Sur 0 -- -- 75
2020-06-21 05:00:00 15.8 4 Sudoeste 9 Sudoeste 0 -- -- 71
2020-06-21 04:00:00 16.5 6 Sudoeste 13 Sudoeste 0 -- -- 68
2020-06-21 03:00:00 17.4 7 Sudoeste 12 Sudoeste 0 -- -- 61
2020-06-21 02:00:00 18.4 6 Sudoeste 14 Sudoeste 0 -- -- 56
2020-06-21 01:00:00 19.9 11 Sudoeste 22 Sudoeste 0 -- -- 51
2020-06-21 00:00:00 21.3 13 Sudoeste 23 Sudoeste 0 -- -- 48
2020-06-20 23:00:00 23.5 19 Sudoeste 28 Sudoeste 0 -- -- 44
2020-06-20 22:00:00 26.5 21 Sudoeste 31 Sudoeste 0 -- -- 40
2020-06-20 21:00:00 30.4 17 Oeste 34 Sudoeste 0 -- -- 30
2020-06-20 20:00:00 32.6 13 Oeste 30 Oeste 0 -- -- 21
2020-06-20 19:00:00 33.5 16 Sudoeste 29 Sudoeste 0 -- -- 19
2020-06-20 18:00:00 33.9 17 Oeste 31 Sudoeste 0 -- -- 20
2020-06-20 17:00:00 33.5 12 Oeste 27 Sudoeste 0 -- -- 21
2020-06-20 16:00:00 32.9 13 Oeste 31 Sudoeste 0 -- -- 22
2020-06-20 15:00:00 31.9 12 Sudoeste 24 Sudoeste 0 -- -- 24
2020-06-20 14:00:00 31 9 Sudoeste 23 Oeste 0 -- -- 27
2020-06-20 13:00:00 29.5 6 Oeste 19 Oeste 0 -- -- 30
2020-06-20 12:00:00 27.5 6 Sudoeste 16 Sudoeste 0 -- -- 34
2020-06-20 11:00:00 25.4 8 Sudoeste 13 Sudoeste 0 -- -- 37
2020-06-20 10:00:00 21.8 3 Sudoeste 8 Sudoeste 0 -- -- 45
2020-06-20 09:00:00 18.2 4 Sudoeste 6 Sudoeste 0 -- -- 56
2020-06-20 08:00:00 15.4 5 Sudoeste 9 Sudoeste 0 -- -- 65
2020-06-20 07:00:00 14.2 6 Sudoeste 10 Sudoeste 0 -- -- 67
2020-06-20 06:00:00 15.1 5 Sudoeste 9 Sudoeste 0 -- -- 64
2020-06-20 05:00:00 16 6 Sur 9 Sudoeste 0 -- -- 61
2020-06-20 04:00:00 16.5 5 Sudoeste 10 Sudoeste 0 -- -- 58
2020-06-20 03:00:00 17.3 7 Sudoeste 11 Sudoeste 0 -- -- 55
2020-06-20 02:00:00 18.4 4 Sudoeste 13 Sudoeste 0 -- -- 50
2020-06-20 01:00:00 19.5 5 Sur 15 Sudoeste 0 -- -- 47
2020-06-20 00:00:00 21.2 8 Sudoeste 23 Sudoeste 0 -- -- 43
2020-06-19 23:00:00 22.8 16 Sudoeste 27 Sudoeste 0 -- -- 40
2020-06-19 22:00:00 25.6 15 Sudoeste 26 Sudoeste 0 -- -- 34
2020-06-19 21:00:00 29.7 10 Sudoeste 22 Oeste 0 -- -- 20
2020-06-19 20:00:00 31.2 13 Sudoeste 24 Oeste 0 -- -- 18
2020-06-19 19:00:00 31.7 13 Sudoeste 28 Sudoeste 0 -- -- 18
2020-06-19 18:00:00 31.5 12 Oeste 27 Oeste 0 -- -- 19
2020-06-19 17:00:00 30.9 14 Oeste 37 Sudoeste 0 -- -- 19
2020-06-19 16:00:00 31 10 Oeste 23 Sudoeste 0 -- -- 21
2020-06-19 15:00:00 29.6 13 Oeste 24 Sudoeste 0 -- -- 26
2020-06-19 14:00:00 28.5 8 Sur 22 Sudoeste 0 -- -- 31
2020-06-19 13:00:00 27.2 13 Sur 20 Sudoeste 0 -- -- 34
2020-06-19 12:00:00 25.1 8 Sudoeste 20 Sudoeste 0 -- -- 39
2020-06-19 11:00:00 22.8 7 Sudoeste 15 Sudoeste 0 -- -- 44
2020-06-19 10:00:00 19.5 3 Oeste 7 Sudoeste 0 -- -- 51
2020-06-19 09:00:00 16.3 3 Oeste 9 Sudoeste 0 -- -- 61
2020-06-19 08:00:00 13.9 4 Sudoeste 14 Sur 0 -- -- 69
2020-06-19 07:00:00 12.8 8 Sur 14 Sudoeste 0 -- -- 71
2020-06-19 06:00:00 13 4 Sur 10 Sur 0 -- -- 70
2020-06-19 05:00:00 13.7 6 Sudoeste 12 Sudoeste 0 -- -- 67
2020-06-19 04:00:00 14.3 5 Sudoeste 13 Sudoeste 0 -- -- 64
2020-06-19 03:00:00 15.2 5 Sudoeste 10 Sudoeste 0 -- -- 61
2020-06-19 02:00:00 16.5 6 Sudoeste 21 Sudoeste 0 -- -- 59
2020-06-19 01:00:00 17.7 12 Sudoeste 17 Sudoeste 0 -- -- 57
2020-06-19 00:00:00 19.4 14 Sudoeste 20 Sudoeste 0 -- -- 52
2020-06-18 23:00:00 21.5 13 Oeste 25 Oeste 0 -- -- 47
2020-06-18 22:00:00 23.9 15 Oeste 27 Sudoeste 0 -- -- 42
2020-06-18 21:00:00 27.3 15 Oeste 28 Oeste 0 -- -- 34
2020-06-18 20:00:00 29.6 16 Sudoeste 27 Sudoeste 0 -- -- 26
2020-06-18 19:00:00 30.6 18 Sudoeste 31 Oeste 0 -- -- 25
2020-06-18 18:00:00 30.5 13 Sudoeste 30 Sudoeste 0 -- -- 26
2020-06-18 17:00:00 30.3 13 Sudoeste 32 Sudoeste 0 -- -- 26
2020-06-18 16:00:00 29.7 13 Sudoeste 32 Sudoeste 0 -- -- 26
2020-06-18 15:00:00 28.4 9 Sudoeste 28 Sudoeste 0 -- -- 29
2020-06-18 14:00:00 28 9 Oeste 24 Sudoeste 0 -- -- 33
2020-06-18 13:00:00 26.5 7 Sudoeste 23 Sur 0 -- -- 36
2020-06-18 12:00:00 23.9 5 Oeste 16 Oeste 0 -- -- 41
2020-06-18 11:00:00 22.3 5 Sudoeste 10 Oeste 0 -- -- 46
2020-06-18 10:00:00 19.3 4 Oeste 8 Oeste 0 -- -- 55
2020-06-18 09:00:00 15.9 5 Sudoeste 8 Sudoeste 0 -- -- 67
2020-06-18 08:00:00 13.8 0 Calma 8 Sudoeste 0 -- -- 73
2020-06-18 07:00:00 12 6 Sudoeste 10 Sur 0 -- -- 78
2020-06-18 06:00:00 12.4 3 Sudoeste 10 Sudoeste 0 -- -- 75
2020-06-18 05:00:00 13.1 5 Sudoeste 16 Sudoeste 0 -- -- 72
2020-06-18 04:00:00 14 12 Sudoeste 19 Sudoeste 0 -- -- 69
2020-06-18 03:00:00 15 9 Sudoeste 14 Sudoeste 0 -- -- 65
2020-06-18 02:00:00 16.1 5 Sudoeste 17 Sudoeste 0 -- -- 60
2020-06-18 01:00:00 17.4 12 Sudoeste 17 Sudoeste 0 -- -- 57
2020-06-18 00:00:00 18.7 12 Sudoeste 26 Sudoeste 0 -- -- 53
2020-06-17 23:00:00 19.5 16 Sudoeste 24 Sudoeste 0 -- -- 49
2020-06-17 22:00:00 22.1 14 Oeste 27 Oeste 0 -- -- 42
2020-06-17 21:00:00 25.4 14 Sudoeste 27 Sudoeste 0 -- -- 35
2020-06-17 20:00:00 27 15 Sudoeste 30 Sudoeste 0 -- -- 30
2020-06-17 19:00:00 27.8 10 Sudoeste 32 Sudoeste 0 -- -- 28
2020-06-17 18:00:00 27.8 15 Oeste 31 Sudoeste 0 -- -- 27
2020-06-17 17:00:00 27 12 Oeste 32 Sudoeste 0 -- -- 29
2020-06-17 16:00:00 26.6 9 Sudoeste 30 Sudoeste 0 -- -- 31
2020-06-17 15:00:00 26.1 15 Oeste 27 Sudoeste 0 -- -- 31
2020-06-17 14:00:00 25.3 11 Oeste 24 Sudoeste 0 -- -- 32
2020-06-17 13:00:00 23 10 Oeste 24 Oeste 0 -- -- 36
2020-06-17 12:00:00 22.1 7 Noroeste 15 Oeste 0 -- -- 40
2020-06-17 11:00:00 19.7 6 Noroeste 12 Oeste 0 -- -- 47
2020-06-17 10:00:00 17.8 4 Oeste 12 Oeste 0 -- -- 53
2020-06-17 09:00:00 15 3 Sudoeste 9 Sudoeste 0 -- -- 62
2020-06-17 08:00:00 12.3 3 Sudoeste 9 Sudoeste 0 -- -- 71
2020-06-17 07:00:00 11.2 3 Sudoeste 10 Noroeste 0 -- -- 72
2020-06-17 06:00:00 11.4 5 Oeste 13 Noroeste 0 -- -- 74
2020-06-17 05:00:00 12.7 9 Noroeste 21 Oeste 0 -- -- 70
2020-06-17 04:00:00 13.4 15 Oeste 28 Sudoeste 0 -- -- 69
2020-06-17 03:00:00 13.1 17 Sudoeste 27 Sudoeste 0 -- -- 70
2020-06-17 02:00:00 13.7 8 Sudoeste 23 Oeste 0 -- -- 66
2020-06-17 01:00:00 15.2 18 Oeste 32 Oeste 0 -- -- 61
2020-06-17 00:00:00 16.1 18 Sudoeste 31 Oeste 0 -- -- 58
2020-06-16 23:00:00 17.8 14 Oeste 25 Sudoeste 0 -- -- 54
2020-06-16 22:00:00 19.8 15 Oeste 36 Oeste 0 -- -- 53
2020-06-16 21:00:00 22.8 23 Oeste 41 Sudoeste 0 -- -- 45
2020-06-16 20:00:00 24.1 24 Oeste 46 Oeste 0 -- -- 38
2020-06-16 19:00:00 25.5 24 Oeste 42 Oeste 0 -- -- 37
2020-06-16 18:00:00 26.2 24 Oeste 42 Sudoeste 0 -- -- 36
2020-06-16 17:00:00 27 23 Oeste 39 Sudoeste 0 -- -- 36
2020-06-16 16:00:00 28.2 21 Sudoeste 32 Sudoeste 0 -- -- 34
2020-06-16 15:00:00 26.8 16 Oeste 31 Oeste 0 -- -- 35
2020-06-16 14:00:00 26.2 13 Oeste 30 Oeste 0 -- -- 37
2020-06-16 13:00:00 25.3 17 Sudoeste 29 Sudoeste 0 -- -- 37
2020-06-16 12:00:00 23.3 10 Oeste 24 Oeste 0 -- -- 43
2020-06-16 11:00:00 21.8 6 Oeste 14 Oeste 0 -- -- 48
2020-06-16 10:00:00 19.6 4 Oeste 12 Oeste 0 -- -- 56
2020-06-16 09:00:00 16.9 10 Sudoeste 15 Oeste 0 -- -- 70
2020-06-16 08:00:00 14.7 5 Oeste 14 Sudoeste 0 -- -- 78
2020-06-16 07:00:00 13.7 4 Oeste 16 Sudoeste 0.2 -- -- 81
2020-06-16 06:00:00 14.5 4 Sudoeste 15 Sudoeste 0 -- -- 74
2020-06-16 05:00:00 14 13 Sudoeste 19 Sudoeste 0 -- -- 76
2020-06-16 04:00:00 14.5 5 Sudoeste 17 Sudoeste 0 -- -- 73
2020-06-16 03:00:00 14.9 11 Sudoeste 16 Sudoeste 0 -- -- 72
2020-06-16 02:00:00 16.2 3 Sudoeste 13 Oeste 0 -- -- 62
2020-06-16 01:00:00 17.5 7 Oeste 18 Noroeste 0 -- -- 58
2020-06-16 00:00:00 18.5 10 Noroeste 19 Noroeste 0 -- -- 55
2020-06-15 23:00:00 19.5 10 Noroeste 26 Noroeste 0 -- -- 51
2020-06-15 22:00:00 21.6 14 Noroeste 28 Oeste 0 -- -- 46
2020-06-15 21:00:00 23.9 18 Oeste 30 Oeste 0 -- -- 41
2020-06-15 20:00:00 25.6 16 Oeste 28 Oeste 0 -- -- 35
2020-06-15 19:00:00 26.6 10 Oeste 31 Sudoeste 0 -- -- 33
2020-06-15 18:00:00 27.2 14 Oeste 33 Sudoeste 0 -- -- 32
2020-06-15 17:00:00 27.6 13 Oeste 31 Noroeste 0 -- -- 33
2020-06-15 16:00:00 27.9 12 Oeste 26 Sudoeste 0 -- -- 32
2020-06-15 15:00:00 25.7 11 Oeste 22 Sudoeste 0 -- -- 37
2020-06-15 14:00:00 26.4 10 Sudoeste 22 Sudoeste 0 -- -- 37
2020-06-15 13:00:00 24.6 10 Sudoeste 22 Sudoeste 0 -- -- 39
2020-06-15 12:00:00 23.7 8 Oeste 17 Oeste 0 -- -- 42
2020-06-15 11:00:00 21 8 Norte 17 Norte 0 -- -- 49
2020-06-15 10:00:00 18.4 2 Noroeste 8 Sudoeste 0 -- -- 60
2020-06-15 09:00:00 15 4 Sur 9 Sudoeste 0 -- -- 73
2020-06-15 08:00:00 12.6 3 Sudoeste 10 Sudoeste 0 -- -- 82
2020-06-15 07:00:00 11.4 5 Sudoeste 11 Sudoeste 0 -- -- 84
2020-06-15 06:00:00 11.8 6 Sudoeste 15 Sudoeste 0 -- -- 82
2020-06-15 05:00:00 12.5 12 Sudoeste 19 Sudoeste 0 -- -- 80
2020-06-15 04:00:00 13.1 15 Sudoeste 19 Sudoeste 0 -- -- 78
2020-06-15 03:00:00 14.2 10 Sudoeste 15 Sudoeste 0 -- -- 73
2020-06-15 02:00:00 15 6 Sudoeste 13 Sudoeste 0 -- -- 68
2020-06-15 01:00:00 15.6 6 Sudoeste 12 Oeste 0 -- -- 66
2020-06-15 00:00:00 17 10 Sudoeste 26 Oeste 0 -- -- 61
2020-06-14 23:00:00 18.6 15 Oeste 33 Sudoeste 0 -- -- 56
2020-06-14 22:00:00 20.2 24 Sudoeste 39 Sudoeste 0 -- -- 49
2020-06-14 21:00:00 24.5 14 Oeste 26 Sudoeste 0 -- -- 37
2020-06-14 20:00:00 25.7 14 Oeste 28 Sudoeste 0 -- -- 34
2020-06-14 19:00:00 27.5 9 Oeste 29 Oeste 0 -- -- 29
2020-06-14 18:00:00 27.3 10 Oeste 26 Sudoeste 0 -- -- 29
2020-06-14 17:00:00 27.3 12 Oeste 27 Sudoeste 0 -- -- 27
2020-06-14 16:00:00 26.6 12 Oeste 29 Sudoeste 0 -- -- 28
2020-06-14 15:00:00 25.9 14 Oeste 27 Sudoeste 0 -- -- 28
2020-06-14 14:00:00 24.5 9 Sudoeste 25 Sudoeste 0 -- -- 32
2020-06-14 13:00:00 23.9 10 Sudoeste 22 Sur 0 -- -- 36
2020-06-14 12:00:00 21.8 9 Sur 21 Sudoeste 0 -- -- 42
2020-06-14 11:00:00 20.1 8 Sur 14 Sur 0 -- -- 47
2020-06-14 10:00:00 17.7 8 Sudoeste 11 Sudoeste 0 -- -- 57
2020-06-14 09:00:00 13.8 3 Oeste 6 Sudoeste 0 -- -- 76
2020-06-14 08:00:00 11.8 4 Sudoeste 7 Sudoeste 0 -- -- 82
2020-06-14 07:00:00 10.4 3 Sudeste 5 Sudeste 0 -- -- 84
2020-06-14 06:00:00 11.6 3 Sudoeste 10 Sur 0 -- -- 76
2020-06-14 05:00:00 12.1 6 Sur 13 Sudoeste 0 -- -- 77
2020-06-14 04:00:00 12.4 2 Sur 5 Sudoeste 0 -- -- 75
2020-06-14 03:00:00 12.7 3 Sudoeste 6 Sur 0 -- -- 70
2020-06-14 02:00:00 13.6 2 Oeste 7 Oeste 0 -- -- 67
2020-06-14 01:00:00 14.4 5 Oeste 14 Sudoeste 0 -- -- 64
2020-06-14 00:00:00 15.6 7 Oeste 12 Oeste 0 -- -- 61
2020-06-13 23:00:00 16.4 6 Oeste 16 Oeste 0 -- -- 56
2020-06-13 22:00:00 18.6 10 Oeste 23 Oeste 0 -- -- 50
2020-06-13 21:00:00 21.1 14 Oeste 29 Sudoeste 0 -- -- 43
2020-06-13 20:00:00 21.7 16 Sudoeste 27 Sudoeste 0 -- -- 39
2020-06-13 19:00:00 22.5 17 Sudoeste 35 Sudoeste 0 -- -- 38
2020-06-13 18:00:00 22.7 18 Sudoeste 30 Sudoeste 0 -- -- 37
2020-06-13 17:00:00 22.9 14 Sudoeste 27 Sudoeste 0 -- -- 36
2020-06-13 16:00:00 23.7 18 Sudoeste 32 Sudoeste 0 -- -- 34
2020-06-13 15:00:00 22.6 12 Oeste 32 Sudoeste 0 -- -- 37
2020-06-13 14:00:00 22.7 12 Sudoeste 33 Sudoeste 0 -- -- 41
2020-06-13 13:00:00 20.1 11 Oeste 26 Oeste 0 -- -- 43
2020-06-13 12:00:00 19.5 11 Noroeste 21 Noroeste 0 -- -- 50
2020-06-13 11:00:00 18.9 11 Oeste 21 Oeste 0 -- -- 56
2020-06-13 10:00:00 16.6 9 Oeste 17 Oeste 0 -- -- 69
2020-06-13 09:00:00 13 9 Sudoeste 15 Sudoeste 0 -- -- 88
2020-06-13 08:00:00 10.5 0 Calma 9 Oeste 0 -- -- 92
2020-06-13 07:00:00 9.8 6 Oeste 15 Sudoeste 0 -- -- 92
2020-06-13 06:00:00 10.2 8 Sudoeste 19 Sudoeste 0 -- -- 91
2020-06-13 05:00:00 10.8 14 Sudoeste 19 Sudoeste 0 -- -- 88
2020-06-13 04:00:00 11 13 Sudoeste 18 Sudoeste 0 -- -- 85
2020-06-13 03:00:00 11.4 12 Sudoeste 21 Sudoeste 0 -- -- 79
2020-06-13 02:00:00 12.1 13 Sudoeste 19 Sudoeste 0 -- -- 74
2020-06-13 01:00:00 12.6 16 Sudoeste 23 Sudoeste 0 -- -- 72
2020-06-13 00:00:00 13.2 15 Sudoeste 24 Sudoeste 0 -- -- 69
2020-06-12 23:00:00 13.9 15 Sudoeste 23 Sudoeste 0 -- -- 64
2020-06-12 22:00:00 15.5 12 Oeste 32 Sudoeste 0 -- -- 59
2020-06-12 21:00:00 17.6 15 Oeste 42 Oeste 0 -- -- 51
2020-06-12 20:00:00 18.6 20 Oeste 46 Sudoeste 0 -- -- 52
2020-06-12 19:00:00 19 25 Oeste 48 Sudoeste 0 -- -- 47
2020-06-12 18:00:00 20 23 Oeste 44 Oeste 0 -- -- 47
2020-06-12 17:00:00 17.7 26 Oeste 54 Sudoeste 0 -- -- 57
2020-06-12 16:00:00 22.4 22 Sudoeste 45 Sudoeste 0 -- -- 40
2020-06-12 15:00:00 22.6 26 Sudoeste 43 Sudoeste 0 -- -- 40
2020-06-12 14:00:00 18.6 26 Sudoeste 47 Sudoeste 0 -- -- 55
2020-06-12 13:00:00 19.4 26 Sudoeste 42 Sudoeste 0 -- -- 49
2020-06-12 12:00:00 19 21 Sudoeste 39 Sudoeste 0 -- -- 52
2020-06-12 11:00:00 17.5 26 Sudoeste 39 Sudoeste 0 -- -- 57
2020-06-12 10:00:00 15.5 18 Sudoeste 36 Sudoeste 0 -- -- 69
2020-06-12 09:00:00 13.6 20 Sudoeste 33 Sudoeste 0 -- -- 76
2020-06-12 08:00:00 11.9 19 Sudoeste 29 Sudoeste 0 -- -- 81
2020-06-12 07:00:00 9.7 15 Sudoeste 27 Sudoeste 0 -- -- 85
2020-06-12 06:00:00 9.7 18 Sudoeste 24 Sudoeste 0 -- -- 82
2020-06-12 05:00:00 10.1 16 Sudoeste 24 Sudoeste 0 -- -- 78
2020-06-12 04:00:00 10.2 13 Sudoeste 22 Sudoeste 0 -- -- 74
2020-06-12 03:00:00 10.2 15 Sudoeste 21 Sudoeste 0 -- -- 74
2020-06-12 02:00:00 10.8 12 Sudoeste 24 Oeste 0 -- -- 68
2020-06-12 01:00:00 11.5 14 Sudoeste 22 Sudoeste 0 -- -- 69
2020-06-12 00:00:00 13.2 8 Oeste 33 Oeste 0 -- -- 59